CheckWX is a tool to help pilots better visualize weather data.  It is not intended as a substitute for an official pre-flight weather briefing.

01:32:19 UTC

C35 METAR
Reedsburg Municipal Airport
Reedsburg, Wisconsin, USA
Current

17 mins ago

KC35 250115Z AUTO 36005KT 10SM OVC005 00/00 A2984 RMK AO2 T00030003 PWINO
Observed
Jan-25 @ 01:15 UTC
Wind
  • 360° at 5 KTS
Visibility
10 SM
Flight Rules
IFR
Cloud Levels
  • Overcast at 500' AGL
Temperature
C / 32°F
Dewpoint
C / 32°F
Humidity
100%
Altimeter
29.84" Hg
Pressure
1010.52 hPa
Previous

37 mins ago

KC35 250055Z AUTO 36005KT 10SM OVC005 00/00 A2984 RMK AO2 T00040004 PWINO
Observed
Jan-25 @ 00:55 UTC
Wind
  • 360° at 5 KTS
Visibility
10 SM
Flight Rules
IFR
Cloud Levels
  • Overcast at 500' AGL
Temperature
C / 32°F
Dewpoint
C / 32°F
Humidity
100%
Altimeter
29.84" Hg
Pressure
1010.52 hPa
Previous

57 mins ago

KC35 250035Z AUTO 01006KT 10SM OVC007 01/01 A2984 RMK AO2 T00050005 PWINO
Observed
Jan-25 @ 00:35 UTC
Wind
  • 010° at 6 KTS
Visibility
10 SM
Flight Rules
IFR
Cloud Levels
  • Overcast at 700' AGL
Temperature
C / 34°F
Dewpoint
C / 34°F
Humidity
100%
Altimeter
29.84" Hg
Pressure
1010.52 hPa